sensor_id;sensor_type;location;lat;lon;timestamp;P1;durP1;ratioP1;P2;durP2;ratioP2
44228;SDS011;29904;51.058;5.378;2022-09-09T00:04:40;2.15;;;0.80;;
44228;SDS011;29904;51.058;5.378;2022-09-09T00:07:15;1.90;;;0.70;;
44228;SDS011;29904;51.058;5.378;2022-09-09T00:12:29;3.25;;;0.95;;
44228;SDS011;29904;51.058;5.378;2022-09-09T00:15:19;2.33;;;0.90;;
44228;SDS011;29904;51.058;5.378;2022-09-09T00:18:00;3.00;;;1.03;;
44228;SDS011;29904;51.058;5.378;2022-09-09T00:21:07;3.58;;;0.70;;
44228;SDS011;29904;51.058;5.378;2022-09-09T00:23:43;1.52;;;0.63;;
44228;SDS011;29904;51.058;5.378;2022-09-09T00:31:37;1.40;;;0.47;;
44228;SDS011;29904;51.058;5.378;2022-09-09T00:34:09;2.17;;;0.70;;
44228;SDS011;29904;51.058;5.378;2022-09-09T00:36:38;0.88;;;0.60;;
44228;SDS011;29904;51.058;5.378;2022-09-09T00:39:04;1.90;;;0.70;;
44228;SDS011;29904;51.058;5.378;2022-09-09T00:41:48;1.23;;;0.63;;
44228;SDS011;29904;51.058;5.378;2022-09-09T00:50:06;4.30;;;1.30;;
44228;SDS011;29904;51.058;5.378;2022-09-09T00:52:44;1.33;;;1.00;;
44228;SDS011;29904;51.058;5.378;2022-09-09T00:58:11;1.83;;;0.88;;
44228;SDS011;29904;51.058;5.378;2022-09-09T01:00:44;2.03;;;0.60;;
44228;SDS011;29904;51.058;5.378;2022-09-09T01:03:35;1.85;;;0.80;;
44228;SDS011;29904;51.058;5.378;2022-09-09T01:06:48;1.48;;;0.63;;
44228;SDS011;29904;51.058;5.378;2022-09-09T01:09:21;2.05;;;0.90;;
44228;SDS011;29904;51.058;5.378;2022-09-09T01:12:17;1.40;;;0.63;;
44228;SDS011;29904;51.058;5.378;2022-09-09T01:14:58;1.70;;;0.70;;
44228;SDS011;29904;51.058;5.378;2022-09-09T01:20:29;1.33;;;0.60;;
44228;SDS011;29904;51.058;5.378;2022-09-09T01:23:09;1.58;;;0.70;;
44228;SDS011;29904;51.058;5.378;2022-09-09T01:28:42;1.83;;;0.80;;
44228;SDS011;29904;51.058;5.378;2022-09-09T01:31:11;1.88;;;0.70;;
44228;SDS011;29904;51.058;5.378;2022-09-09T01:33:42;2.28;;;0.60;;
44228;SDS011;29904;51.058;5.378;2022-09-09T01:36:08;2.00;;;0.57;;
44228;SDS011;29904;51.058;5.378;2022-09-09T01:38:38;2.20;;;0.60;;
44228;SDS011;29904;51.058;5.378;2022-09-09T01:41:05;2.33;;;0.70;;
44228;SDS011;29904;51.058;5.378;2022-09-09T01:43:30;1.33;;;0.50;;
44228;SDS011;29904;51.058;5.378;2022-09-09T01:45:59;0.93;;;0.52;;
44228;SDS011;29904;51.058;5.378;2022-09-09T01:48:26;2.27;;;0.67;;
44228;SDS011;29904;51.058;5.378;2022-09-09T01:50:53;2.60;;;0.70;;
44228;SDS011;29904;51.058;5.378;2022-09-09T01:53:20;2.22;;;0.70;;
44228;SDS011;29904;51.058;5.378;2022-09-09T01:55:55;1.70;;;0.60;;
44228;SDS011;29904;51.058;5.378;2022-09-09T01:58:40;2.97;;;0.88;;
44228;SDS011;29904;51.058;5.378;2022-09-09T02:04:02;1.70;;;0.70;;
44228;SDS011;29904;51.058;5.378;2022-09-09T02:06:39;2.25;;;0.63;;
44228;SDS011;29904;51.058;5.378;2022-09-09T02:09:06;1.60;;;0.70;;
44228;SDS011;29904;51.058;5.378;2022-09-09T02:11:34;1.95;;;0.70;;
44228;SDS011;29904;51.058;5.378;2022-09-09T02:14:01;1.63;;;0.70;;
44228;SDS011;29904;51.058;5.378;2022-09-09T02:19:09;1.50;;;0.60;;
44228;SDS011;29904;51.058;5.378;2022-09-09T02:21:41;0.73;;;0.43;;
44228;SDS011;29904;51.058;5.378;2022-09-09T02:24:09;1.80;;;0.65;;
44228;SDS011;29904;51.058;5.378;2022-09-09T02:26:39;3.07;;;0.80;;
44228;SDS011;29904;51.058;5.378;2022-09-09T02:29:14;3.17;;;0.70;;
44228;SDS011;29904;51.058;5.378;2022-09-09T02:31:45;1.80;;;0.60;;
44228;SDS011;29904;51.058;5.378;2022-09-09T02:34:13;1.48;;;0.60;;
44228;SDS011;29904;51.058;5.378;2022-09-09T02:36:41;1.67;;;0.70;;
44228;SDS011;29904;51.058;5.378;2022-09-09T02:39:10;1.65;;;0.60;;
44228;SDS011;29904;51.058;5.378;2022-09-09T02:41:38;2.43;;;0.60;;
44228;SDS011;29904;51.058;5.378;2022-09-09T02:44:16;2.60;;;0.70;;
44228;SDS011;29904;51.058;5.378;2022-09-09T02:52:06;4.85;;;0.90;;
44228;SDS011;29904;51.058;5.378;2022-09-09T02:54:34;2.33;;;0.70;;
44228;SDS011;29904;51.058;5.378;2022-09-09T02:57:06;2.58;;;0.70;;
44228;SDS011;29904;51.058;5.378;2022-09-09T02:59:43;3.08;;;0.80;;
44228;SDS011;29904;51.058;5.378;2022-09-09T03:02:11;2.47;;;0.85;;
44228;SDS011;29904;51.058;5.378;2022-09-09T03:04:38;3.53;;;0.80;;
44228;SDS011;29904;51.058;5.378;2022-09-09T03:07:04;4.22;;;0.88;;
44228;SDS011;29904;51.058;5.378;2022-09-09T03:09:31;2.58;;;0.70;;
44228;SDS011;29904;51.058;5.378;2022-09-09T03:11:57;3.27;;;0.93;;
44228;SDS011;29904;51.058;5.378;2022-09-09T03:14:23;2.25;;;0.80;;
44228;SDS011;29904;51.058;5.378;2022-09-09T03:16:53;3.05;;;0.82;;
44228;SDS011;29904;51.058;5.378;2022-09-09T03:19:19;3.03;;;1.00;;
44228;SDS011;29904;51.058;5.378;2022-09-09T03:21:47;2.60;;;0.93;;
44228;SDS011;29904;51.058;5.378;2022-09-09T03:24:13;2.40;;;0.83;;
44228;SDS011;29904;51.058;5.378;2022-09-09T03:26:39;3.70;;;1.02;;
44228;SDS011;29904;51.058;5.378;2022-09-09T03:29:10;3.90;;;1.00;;
44228;SDS011;29904;51.058;5.378;2022-09-09T03:31:37;3.15;;;0.98;;
44228;SDS011;29904;51.058;5.378;2022-09-09T03:34:04;4.70;;;1.10;;
44228;SDS011;29904;51.058;5.378;2022-09-09T03:36:30;2.25;;;0.80;;
44228;SDS011;29904;51.058;5.378;2022-09-09T03:38:56;3.20;;;0.98;;
44228;SDS011;29904;51.058;5.378;2022-09-09T03:41:23;2.95;;;1.10;;
44228;SDS011;29904;51.058;5.378;2022-09-09T03:43:50;4.60;;;1.10;;
44228;SDS011;29904;51.058;5.378;2022-09-09T03:46:16;3.55;;;1.10;;
44228;SDS011;29904;51.058;5.378;2022-09-09T03:48:45;3.63;;;0.82;;
44228;SDS011;29904;51.058;5.378;2022-09-09T03:51:13;4.20;;;0.98;;
44228;SDS011;29904;51.058;5.378;2022-09-09T03:53:41;4.70;;;0.95;;
44228;SDS011;29904;51.058;5.378;2022-09-09T03:56:07;3.50;;;1.10;;
44228;SDS011;29904;51.058;5.378;2022-09-09T03:58:33;2.50;;;0.80;;
44228;SDS011;29904;51.058;5.378;2022-09-09T04:01:01;4.33;;;0.90;;
44228;SDS011;29904;51.058;5.378;2022-09-09T04:03:31;4.13;;;0.90;;
44228;SDS011;29904;51.058;5.378;2022-09-09T04:05:58;5.70;;;1.10;;
44228;SDS011;29904;51.058;5.378;2022-09-09T04:08:25;3.58;;;1.10;;
44228;SDS011;29904;51.058;5.378;2022-09-09T04:10:51;4.78;;;1.00;;
44228;SDS011;29904;51.058;5.378;2022-09-09T04:13:18;5.05;;;0.90;;
44228;SDS011;29904;51.058;5.378;2022-09-09T04:15:56;4.65;;;0.85;;
44228;SDS011;29904;51.058;5.378;2022-09-09T04:18:24;4.05;;;1.00;;
44228;SDS011;29904;51.058;5.378;2022-09-09T04:20:53;6.40;;;1.00;;
44228;SDS011;29904;51.058;5.378;2022-09-09T04:23:20;4.85;;;0.95;;
44228;SDS011;29904;51.058;5.378;2022-09-09T04:25:46;4.07;;;0.90;;
44228;SDS011;29904;51.058;5.378;2022-09-09T04:28:14;5.43;;;0.80;;
44228;SDS011;29904;51.058;5.378;2022-09-09T04:30:41;4.93;;;1.10;;
44228;SDS011;29904;51.058;5.378;2022-09-09T04:33:07;4.35;;;0.80;;
44228;SDS011;29904;51.058;5.378;2022-09-09T04:35:35;2.65;;;0.82;;
44228;SDS011;29904;51.058;5.378;2022-09-09T04:38:03;4.83;;;0.90;;
44228;SDS011;29904;51.058;5.378;2022-09-09T04:40:29;5.13;;;0.90;;
44228;SDS011;29904;51.058;5.378;2022-09-09T04:42:59;2.78;;;0.80;;
44228;SDS011;29904;51.058;5.378;2022-09-09T04:45:25;2.25;;;0.75;;
44228;SDS011;29904;51.058;5.378;2022-09-09T04:47:52;3.28;;;1.00;;
44228;SDS011;29904;51.058;5.378;2022-09-09T04:50:20;3.47;;;0.82;;
44228;SDS011;29904;51.058;5.378;2022-09-09T04:52:46;2.70;;;1.00;;
44228;SDS011;29904;51.058;5.378;2022-09-09T04:55:12;5.17;;;1.10;;
44228;SDS011;29904;51.058;5.378;2022-09-09T04:57:40;5.30;;;0.90;;
44228;SDS011;29904;51.058;5.378;2022-09-09T05:00:06;3.50;;;1.00;;
44228;SDS011;29904;51.058;5.378;2022-09-09T05:02:32;5.28;;;1.10;;
44228;SDS011;29904;51.058;5.378;2022-09-09T05:05:03;3.95;;;1.40;;
44228;SDS011;29904;51.058;5.378;2022-09-09T05:07:30;5.28;;;1.42;;
44228;SDS011;29904;51.058;5.378;2022-09-09T05:09:56;4.40;;;1.30;;
44228;SDS011;29904;51.058;5.378;2022-09-09T05:12:22;5.40;;;1.40;;
44228;SDS011;29904;51.058;5.378;2022-09-09T05:14:49;5.30;;;1.00;;
44228;SDS011;29904;51.058;5.378;2022-09-09T05:17:15;5.00;;;1.05;;
44228;SDS011;29904;51.058;5.378;2022-09-09T05:19:43;3.95;;;1.10;;
44228;SDS011;29904;51.058;5.378;2022-09-09T05:22:09;4.25;;;1.15;;
44228;SDS011;29904;51.058;5.378;2022-09-09T05:24:36;4.10;;;1.13;;
44228;SDS011;29904;51.058;5.378;2022-09-09T05:27:04;3.97;;;1.30;;
44228;SDS011;29904;51.058;5.378;2022-09-09T05:29:31;2.80;;;1.08;;
44228;SDS011;29904;51.058;5.378;2022-09-09T05:31:58;5.63;;;1.67;;
44228;SDS011;29904;51.058;5.378;2022-09-09T05:34:24;7.68;;;1.35;;
44228;SDS011;29904;51.058;5.378;2022-09-09T05:36:50;4.00;;;1.20;;
44228;SDS011;29904;51.058;5.378;2022-09-09T05:39:17;7.05;;;1.20;;
44228;SDS011;29904;51.058;5.378;2022-09-09T05:41:43;7.70;;;1.45;;
44228;SDS011;29904;51.058;5.378;2022-09-09T05:44:09;4.80;;;1.10;;
44228;SDS011;29904;51.058;5.378;2022-09-09T05:46:34;5.40;;;1.30;;
44228;SDS011;29904;51.058;5.378;2022-09-09T05:49:02;5.13;;;1.00;;
44228;SDS011;29904;51.058;5.378;2022-09-09T05:51:30;7.47;;;1.00;;
44228;SDS011;29904;51.058;5.378;2022-09-09T05:53:56;5.20;;;1.30;;
44228;SDS011;29904;51.058;5.378;2022-09-09T05:56:25;3.80;;;1.10;;
44228;SDS011;29904;51.058;5.378;2022-09-09T05:58:52;6.63;;;1.30;;
44228;SDS011;29904;51.058;5.378;2022-09-09T06:01:20;6.33;;;1.50;;
44228;SDS011;29904;51.058;5.378;2022-09-09T06:03:53;6.53;;;1.27;;
44228;SDS011;29904;51.058;5.378;2022-09-09T06:06:21;7.65;;;1.70;;
44228;SDS011;29904;51.058;5.378;2022-09-09T06:08:52;5.95;;;1.50;;
44228;SDS011;29904;51.058;5.378;2022-09-09T06:11:20;6.18;;;1.60;;
44228;SDS011;29904;51.058;5.378;2022-09-09T06:13:48;6.93;;;1.30;;
44228;SDS011;29904;51.058;5.378;2022-09-09T06:16:16;4.65;;;1.30;;
44228;SDS011;29904;51.058;5.378;2022-09-09T06:18:43;6.18;;;1.20;;
44228;SDS011;29904;51.058;5.378;2022-09-09T06:21:23;4.95;;;1.20;;
44228;SDS011;29904;51.058;5.378;2022-09-09T06:23:50;7.93;;;1.50;;
44228;SDS011;29904;51.058;5.378;2022-09-09T06:26:22;6.68;;;1.20;;
44228;SDS011;29904;51.058;5.378;2022-09-09T06:28:51;5.03;;;1.50;;
44228;SDS011;29904;51.058;5.378;2022-09-09T06:31:19;3.83;;;1.10;;
44228;SDS011;29904;51.058;5.378;2022-09-09T06:33:52;7.18;;;1.30;;
44228;SDS011;29904;51.058;5.378;2022-09-09T06:36:23;7.13;;;1.43;;
44228;SDS011;29904;51.058;5.378;2022-09-09T06:38:50;5.25;;;1.25;;
44228;SDS011;29904;51.058;5.378;2022-09-09T06:41:19;4.68;;;1.20;;
44228;SDS011;29904;51.058;5.378;2022-09-09T06:43:45;4.85;;;1.20;;
44228;SDS011;29904;51.058;5.378;2022-09-09T06:46:15;6.00;;;1.38;;
44228;SDS011;29904;51.058;5.378;2022-09-09T06:48:43;7.22;;;1.30;;
44228;SDS011;29904;51.058;5.378;2022-09-09T06:53:41;7.07;;;1.40;;
44228;SDS011;29904;51.058;5.378;2022-09-09T06:58:41;7.95;;;1.30;;
44228;SDS011;29904;51.058;5.378;2022-09-09T07:01:11;6.72;;;1.20;;
44228;SDS011;29904;51.058;5.378;2022-09-09T07:03:38;8.43;;;1.30;;
44228;SDS011;29904;51.058;5.378;2022-09-09T07:06:05;5.03;;;0.97;;
44228;SDS011;29904;51.058;5.378;2022-09-09T07:08:34;9.30;;;1.38;;
44228;SDS011;29904;51.058;5.378;2022-09-09T07:11:03;6.00;;;1.10;;
44228;SDS011;29904;51.058;5.378;2022-09-09T07:13:32;5.28;;;1.15;;
44228;SDS011;29904;51.058;5.378;2022-09-09T07:16:08;6.68;;;1.30;;
44228;SDS011;29904;51.058;5.378;2022-09-09T07:18:39;4.95;;;1.00;;
44228;SDS011;29904;51.058;5.378;2022-09-09T07:21:05;5.38;;;1.10;;
44228;SDS011;29904;51.058;5.378;2022-09-09T07:23:31;6.95;;;1.60;;
44228;SDS011;29904;51.058;5.378;2022-09-09T07:26:00;3.90;;;0.87;;
44228;SDS011;29904;51.058;5.378;2022-09-09T07:28:26;3.65;;;1.02;;
44228;SDS011;29904;51.058;5.378;2022-09-09T07:30:57;5.95;;;1.15;;
44228;SDS011;29904;51.058;5.378;2022-09-09T07:33:26;5.32;;;1.17;;
44228;SDS011;29904;51.058;5.378;2022-09-09T07:35:52;3.97;;;0.90;;
44228;SDS011;29904;51.058;5.378;2022-09-09T07:38:18;5.88;;;1.30;;
44228;SDS011;29904;51.058;5.378;2022-09-09T07:40:45;5.80;;;1.08;;
44228;SDS011;29904;51.058;5.378;2022-09-09T07:43:11;4.40;;;1.15;;
44228;SDS011;29904;51.058;5.378;2022-09-09T07:45:37;5.63;;;1.30;;
44228;SDS011;29904;51.058;5.378;2022-09-09T07:48:05;6.28;;;1.20;;
44228;SDS011;29904;51.058;5.378;2022-09-09T07:50:31;6.03;;;1.00;;
44228;SDS011;29904;51.058;5.378;2022-09-09T07:52:56;5.10;;;0.93;;
44228;SDS011;29904;51.058;5.378;2022-09-09T07:55:24;7.38;;;1.50;;
44228;SDS011;29904;51.058;5.378;2022-09-09T07:57:50;4.57;;;0.93;;
44228;SDS011;29904;51.058;5.378;2022-09-09T08:00:17;2.95;;;0.85;;
44228;SDS011;29904;51.058;5.378;2022-09-09T08:02:47;4.78;;;1.00;;
44228;SDS011;29904;51.058;5.378;2022-09-09T08:05:15;5.75;;;1.00;;
44228;SDS011;29904;51.058;5.378;2022-09-09T08:07:41;4.53;;;0.73;;
44228;SDS011;29904;51.058;5.378;2022-09-09T08:10:08;5.13;;;0.93;;
44228;SDS011;29904;51.058;5.378;2022-09-09T08:12:34;3.90;;;0.90;;
44228;SDS011;29904;51.058;5.378;2022-09-09T08:14:59;4.90;;;0.90;;
44228;SDS011;29904;51.058;5.378;2022-09-09T08:17:25;3.50;;;0.70;;
44228;SDS011;29904;51.058;5.378;2022-09-09T08:19:51;6.15;;;1.08;;
44228;SDS011;29904;51.058;5.378;2022-09-09T08:22:19;6.15;;;1.10;;
44228;SDS011;29904;51.058;5.378;2022-09-09T08:24:45;4.28;;;1.00;;
44228;SDS011;29904;51.058;5.378;2022-09-09T08:27:12;5.38;;;1.02;;
44228;SDS011;29904;51.058;5.378;2022-09-09T08:29:39;4.82;;;0.75;;
44228;SDS011;29904;51.058;5.378;2022-09-09T08:32:08;5.72;;;0.90;;
44228;SDS011;29904;51.058;5.378;2022-09-09T08:34:33;4.37;;;0.93;;
44228;SDS011;29904;51.058;5.378;2022-09-09T08:36:59;4.13;;;0.70;;
44228;SDS011;29904;51.058;5.378;2022-09-09T08:39:25;4.00;;;0.80;;
44228;SDS011;29904;51.058;5.378;2022-09-09T08:52:53;3.97;;;0.93;;
44228;SDS011;29904;51.058;5.378;2022-09-09T09:03:18;5.03;;;0.90;;
44228;SDS011;29904;51.058;5.378;2022-09-09T09:11:03;4.25;;;0.90;;
44228;SDS011;29904;51.058;5.378;2022-09-09T09:13:40;4.70;;;1.00;;
44228;SDS011;29904;51.058;5.378;2022-09-09T09:19:08;6.40;;;1.00;;
44228;SDS011;29904;51.058;5.378;2022-09-09T09:21:40;5.22;;;0.90;;
44228;SDS011;29904;51.058;5.378;2022-09-09T09:24:09;7.30;;;1.23;;
44228;SDS011;29904;51.058;5.378;2022-09-09T09:26:45;5.88;;;1.02;;
44228;SDS011;29904;51.058;5.378;2022-09-09T09:29:16;5.47;;;0.90;;
44228;SDS011;29904;51.058;5.378;2022-09-09T09:32:02;4.22;;;0.75;;
44228;SDS011;29904;51.058;5.378;2022-09-09T09:34:29;4.83;;;1.00;;
44228;SDS011;29904;51.058;5.378;2022-09-09T09:36:57;6.68;;;1.08;;
44228;SDS011;29904;51.058;5.378;2022-09-09T09:39:33;5.60;;;0.90;;
44228;SDS011;29904;51.058;5.378;2022-09-09T09:42:09;4.07;;;0.98;;
44228;SDS011;29904;51.058;5.378;2022-09-09T09:44:41;7.13;;;0.98;;
44228;SDS011;29904;51.058;5.378;2022-09-09T09:47:16;5.00;;;0.90;;
44228;SDS011;29904;51.058;5.378;2022-09-09T09:49:56;4.82;;;0.77;;
44228;SDS011;29904;51.058;5.378;2022-09-09T09:52:25;1.73;;;0.52;;
44228;SDS011;29904;51.058;5.378;2022-09-09T09:54:55;5.53;;;0.90;;
44228;SDS011;29904;51.058;5.378;2022-09-09T09:57:26;3.78;;;0.80;;
44228;SDS011;29904;51.058;5.378;2022-09-09T10:00:01;3.63;;;0.70;;
44228;SDS011;29904;51.058;5.378;2022-09-09T10:02:37;3.95;;;0.80;;
44228;SDS011;29904;51.058;5.378;2022-09-09T10:05:16;4.05;;;0.70;;
44228;SDS011;29904;51.058;5.378;2022-09-09T10:07:59;2.90;;;0.90;;
44228;SDS011;29904;51.058;5.378;2022-09-09T10:16:33;5.97;;;0.82;;
44228;SDS011;29904;51.058;5.378;2022-09-09T10:19:05;4.00;;;0.90;;
44228;SDS011;29904;51.058;5.378;2022-09-09T10:30:38;3.05;;;1.10;;
44228;SDS011;29904;51.058;5.378;2022-09-09T10:33:16;5.43;;;1.00;;
44228;SDS011;29904;51.058;5.378;2022-09-09T10:36:12;4.63;;;1.00;;
44228;SDS011;29904;51.058;5.378;2022-09-09T10:38:47;5.60;;;0.93;;
44228;SDS011;29904;51.058;5.378;2022-09-09T10:41:23;6.93;;;1.33;;
44228;SDS011;29904;51.058;5.378;2022-09-09T10:44:15;5.63;;;1.30;;
44228;SDS011;29904;51.058;5.378;2022-09-09T10:55:24;7.22;;;1.40;;
44228;SDS011;29904;51.058;5.378;2022-09-09T10:57:57;5.63;;;1.30;;
44228;SDS011;29904;51.058;5.378;2022-09-09T11:03:24;5.83;;;1.33;;
44228;SDS011;29904;51.058;5.378;2022-09-09T11:05:57;4.97;;;1.50;;
44228;SDS011;29904;51.058;5.378;2022-09-09T11:08:30;4.38;;;1.27;;
44228;SDS011;29904;51.058;5.378;2022-09-09T11:11:04;6.28;;;1.40;;
44228;SDS011;29904;51.058;5.378;2022-09-09T11:18:46;4.53;;;1.43;;
44228;SDS011;29904;51.058;5.378;2022-09-09T11:21:26;4.53;;;1.50;;
44228;SDS011;29904;51.058;5.378;2022-09-09T11:24:02;3.95;;;1.25;;
44228;SDS011;29904;51.058;5.378;2022-09-09T11:26:38;4.30;;;1.27;;
44228;SDS011;29904;51.058;5.378;2022-09-09T11:41:05;3.13;;;1.27;;
44228;SDS011;29904;51.058;5.378;2022-09-09T11:43:52;5.60;;;1.30;;
44228;SDS011;29904;51.058;5.378;2022-09-09T11:46:19;4.35;;;1.20;;
44228;SDS011;29904;51.058;5.378;2022-09-09T11:49:02;4.57;;;1.30;;
44228;SDS011;29904;51.058;5.378;2022-09-09T11:51:30;5.07;;;1.30;;
44228;SDS011;29904;51.058;5.378;2022-09-09T11:53:59;5.68;;;1.40;;
44228;SDS011;29904;51.058;5.378;2022-09-09T11:56:31;6.38;;;1.38;;
44228;SDS011;29904;51.058;5.378;2022-09-09T11:59:06;3.50;;;1.20;;
44228;SDS011;29904;51.058;5.378;2022-09-09T12:01:56;6.22;;;1.50;;
44228;SDS011;29904;51.058;5.378;2022-09-09T12:07:21;5.50;;;1.20;;
44228;SDS011;29904;51.058;5.378;2022-09-09T12:10:19;3.97;;;1.25;;
44228;SDS011;29904;51.058;5.378;2022-09-09T12:12:42;4.43;;;1.15;;
44228;SDS011;29904;51.058;5.378;2022-09-09T12:17:48;3.83;;;1.13;;
44228;SDS011;29904;51.058;5.378;2022-09-09T12:22:51;6.97;;;1.50;;
44228;SDS011;29904;51.058;5.378;2022-09-09T12:28:22;3.45;;;1.00;;
44228;SDS011;29904;51.058;5.378;2022-09-09T12:31:06;7.18;;;0.98;;
44228;SDS011;29904;51.058;5.378;2022-09-09T12:33:44;4.30;;;0.93;;
44228;SDS011;29904;51.058;5.378;2022-09-09T12:36:22;4.35;;;1.15;;
44228;SDS011;29904;51.058;5.378;2022-09-09T12:38:59;4.93;;;1.20;;
44228;SDS011;29904;51.058;5.378;2022-09-09T12:41:53;4.13;;;1.23;;
44228;SDS011;29904;51.058;5.378;2022-09-09T12:44:22;3.55;;;0.70;;
44228;SDS011;29904;51.058;5.378;2022-09-09T12:46:51;4.35;;;1.02;;
44228;SDS011;29904;51.058;5.378;2022-09-09T12:49:37;6.25;;;1.05;;
44228;SDS011;29904;51.058;5.378;2022-09-09T12:54:43;3.38;;;0.70;;
44228;SDS011;29904;51.058;5.378;2022-09-09T12:57:13;2.90;;;0.73;;
44228;SDS011;29904;51.058;5.378;2022-09-09T12:59:41;3.67;;;0.80;;
44228;SDS011;29904;51.058;5.378;2022-09-09T13:02:44;3.05;;;0.70;;
44228;SDS011;29904;51.058;5.378;2022-09-09T13:05:20;4.35;;;0.77;;
44228;SDS011;29904;51.058;5.378;2022-09-09T13:07:48;3.85;;;0.63;;
44228;SDS011;29904;51.058;5.378;2022-09-09T13:10:14;3.33;;;0.70;;
44228;SDS011;29904;51.058;5.378;2022-09-09T13:12:45;3.70;;;1.00;;
44228;SDS011;29904;51.058;5.378;2022-09-09T13:15:14;2.90;;;0.80;;
44228;SDS011;29904;51.058;5.378;2022-09-09T13:17:49;3.08;;;0.82;;
44228;SDS011;29904;51.058;5.378;2022-09-09T13:20:17;3.72;;;1.08;;
44228;SDS011;29904;51.058;5.378;2022-09-09T13:22:44;3.85;;;0.82;;
44228;SDS011;29904;51.058;5.378;2022-09-09T13:27:38;3.05;;;0.70;;
44228;SDS011;29904;51.058;5.378;2022-09-09T13:36:15;3.15;;;0.85;;
44228;SDS011;29904;51.058;5.378;2022-09-09T13:38:37;3.42;;;0.77;;
44228;SDS011;29904;51.058;5.378;2022-09-09T13:41:24;3.72;;;0.70;;
44228;SDS011;29904;51.058;5.378;2022-09-09T13:44:02;2.50;;;0.60;;
44228;SDS011;29904;51.058;5.378;2022-09-09T13:46:35;2.90;;;0.60;;
44228;SDS011;29904;51.058;5.378;2022-09-09T13:54:06;1.92;;;0.70;;
44228;SDS011;29904;51.058;5.378;2022-09-09T13:56:34;4.30;;;0.80;;
44228;SDS011;29904;51.058;5.378;2022-09-09T13:59:03;4.70;;;0.60;;
44228;SDS011;29904;51.058;5.378;2022-09-09T14:01:30;3.65;;;0.80;;
44228;SDS011;29904;51.058;5.378;2022-09-09T14:04:00;5.72;;;1.20;;
44228;SDS011;29904;51.058;5.378;2022-09-09T14:06:25;3.42;;;0.82;;
44228;SDS011;29904;51.058;5.378;2022-09-09T14:08:52;6.37;;;1.30;;
44228;SDS011;29904;51.058;5.378;2022-09-09T14:11:21;3.03;;;0.80;;
44228;SDS011;29904;51.058;5.378;2022-09-09T14:13:50;3.30;;;0.88;;
44228;SDS011;29904;51.058;5.378;2022-09-09T14:16:16;3.67;;;0.80;;
44228;SDS011;29904;51.058;5.378;2022-09-09T14:18:43;2.87;;;0.80;;
44228;SDS011;29904;51.058;5.378;2022-09-09T14:21:11;3.10;;;0.75;;
44228;SDS011;29904;51.058;5.378;2022-09-09T14:23:37;3.17;;;0.75;;
44228;SDS011;29904;51.058;5.378;2022-09-09T14:26:04;2.23;;;0.63;;
44228;SDS011;29904;51.058;5.378;2022-09-09T14:28:31;2.53;;;0.70;;
44228;SDS011;29904;51.058;5.378;2022-09-09T14:30:59;2.90;;;0.80;;
44228;SDS011;29904;51.058;5.378;2022-09-09T14:33:26;2.88;;;0.70;;
44228;SDS011;29904;51.058;5.378;2022-09-09T14:35:57;2.83;;;0.57;;
44228;SDS011;29904;51.058;5.378;2022-09-09T14:38:24;2.50;;;0.60;;
44228;SDS011;29904;51.058;5.378;2022-09-09T14:40:53;2.85;;;0.80;;
44228;SDS011;29904;51.058;5.378;2022-09-09T14:43:19;2.35;;;0.60;;
44228;SDS011;29904;51.058;5.378;2022-09-09T14:45:45;2.63;;;0.70;;
44228;SDS011;29904;51.058;5.378;2022-09-09T14:48:13;2.55;;;0.73;;
44228;SDS011;29904;51.058;5.378;2022-09-09T14:50:40;2.35;;;0.68;;
44228;SDS011;29904;51.058;5.378;2022-09-09T14:53:06;3.43;;;0.70;;
44228;SDS011;29904;51.058;5.378;2022-09-09T14:55:34;3.80;;;0.70;;
44228;SDS011;29904;51.058;5.378;2022-09-09T14:58:00;2.13;;;0.57;;
44228;SDS011;29904;51.058;5.378;2022-09-09T15:00:26;2.23;;;0.57;;
44228;SDS011;29904;51.058;5.378;2022-09-09T15:02:52;2.15;;;0.50;;
44228;SDS011;29904;51.058;5.378;2022-09-09T15:05:20;2.03;;;0.60;;
44228;SDS011;29904;51.058;5.378;2022-09-09T15:07:47;2.72;;;0.60;;
44228;SDS011;29904;51.058;5.378;2022-09-09T15:10:13;1.90;;;0.60;;
44228;SDS011;29904;51.058;5.378;2022-09-09T15:12:39;2.03;;;0.50;;
44228;SDS011;29904;51.058;5.378;2022-09-09T15:15:06;2.58;;;0.60;;
44228;SDS011;29904;51.058;5.378;2022-09-09T15:17:33;1.90;;;0.60;;
44228;SDS011;29904;51.058;5.378;2022-09-09T15:20:02;3.10;;;0.53;;
44228;SDS011;29904;51.058;5.378;2022-09-09T15:22:30;1.33;;;0.40;;
44228;SDS011;29904;51.058;5.378;2022-09-09T15:24:58;2.10;;;0.55;;
44228;SDS011;29904;51.058;5.378;2022-09-09T15:27:24;2.57;;;0.67;;
44228;SDS011;29904;51.058;5.378;2022-09-09T15:29:50;2.22;;;0.73;;
44228;SDS011;29904;51.058;5.378;2022-09-09T15:32:18;2.03;;;0.60;;
44228;SDS011;29904;51.058;5.378;2022-09-09T15:34:43;3.30;;;0.60;;
44228;SDS011;29904;51.058;5.378;2022-09-09T15:37:10;1.65;;;0.50;;
44228;SDS011;29904;51.058;5.378;2022-09-09T15:39:38;1.75;;;0.52;;
44228;SDS011;29904;51.058;5.378;2022-09-09T15:42:04;1.98;;;0.52;;
44228;SDS011;29904;51.058;5.378;2022-09-09T15:44:38;1.35;;;0.50;;
44228;SDS011;29904;51.058;5.378;2022-09-09T15:47:04;2.73;;;0.70;;
44228;SDS011;29904;51.058;5.378;2022-09-09T15:49:30;2.47;;;0.70;;
44228;SDS011;29904;51.058;5.378;2022-09-09T15:51:57;3.17;;;0.70;;
44228;SDS011;29904;51.058;5.378;2022-09-09T15:54:27;1.53;;;0.50;;
44228;SDS011;29904;51.058;5.378;2022-09-09T15:56:57;2.38;;;0.60;;
44228;SDS011;29904;51.058;5.378;2022-09-09T15:59:25;2.00;;;0.70;;
44228;SDS011;29904;51.058;5.378;2022-09-09T16:01:53;2.65;;;0.77;;
44228;SDS011;29904;51.058;5.378;2022-09-09T16:04:20;1.33;;;0.50;;
44228;SDS011;29904;51.058;5.378;2022-09-09T16:06:50;2.05;;;0.63;;
44228;SDS011;29904;51.058;5.378;2022-09-09T16:09:21;2.90;;;0.70;;
44228;SDS011;29904;51.058;5.378;2022-09-09T16:11:48;2.90;;;0.80;;
44228;SDS011;29904;51.058;5.378;2022-09-09T16:14:14;2.53;;;0.65;;
44228;SDS011;29904;51.058;5.378;2022-09-09T16:16:41;2.10;;;0.60;;
44228;SDS011;29904;51.058;5.378;2022-09-09T16:19:11;2.05;;;0.57;;
44228;SDS011;29904;51.058;5.378;2022-09-09T16:21:42;1.73;;;0.60;;
44228;SDS011;29904;51.058;5.378;2022-09-09T16:24:10;2.72;;;0.70;;
44228;SDS011;29904;51.058;5.378;2022-09-09T16:26:39;2.22;;;0.60;;
44228;SDS011;29904;51.058;5.378;2022-09-09T16:29:08;1.70;;;0.60;;
44228;SDS011;29904;51.058;5.378;2022-09-09T16:31:33;2.92;;;0.70;;
44228;SDS011;29904;51.058;5.378;2022-09-09T16:33:59;4.28;;;0.75;;
44228;SDS011;29904;51.058;5.378;2022-09-09T16:36:27;2.92;;;0.70;;
44228;SDS011;29904;51.058;5.378;2022-09-09T16:38:58;2.90;;;0.70;;
44228;SDS011;29904;51.058;5.378;2022-09-09T16:41:25;1.60;;;0.70;;
44228;SDS011;29904;51.058;5.378;2022-09-09T16:44:03;2.05;;;0.80;;
44228;SDS011;29904;51.058;5.378;2022-09-09T16:46:31;1.90;;;0.60;;
44228;SDS011;29904;51.058;5.378;2022-09-09T16:48:59;2.40;;;0.60;;
44228;SDS011;29904;51.058;5.378;2022-09-09T16:51:27;3.95;;;0.85;;
44228;SDS011;29904;51.058;5.378;2022-09-09T16:53:57;2.17;;;0.55;;
44228;SDS011;29904;51.058;5.378;2022-09-09T16:56:25;3.87;;;0.70;;
44228;SDS011;29904;51.058;5.378;2022-09-09T16:58:53;3.63;;;0.60;;
44228;SDS011;29904;51.058;5.378;2022-09-09T17:01:20;2.17;;;0.35;;
44228;SDS011;29904;51.058;5.378;2022-09-09T17:03:58;1.80;;;0.40;;
44228;SDS011;29904;51.058;5.378;2022-09-09T17:06:32;0.63;;;0.30;;
44228;SDS011;29904;51.058;5.378;2022-09-09T17:09:00;0.77;;;0.30;;
44228;SDS011;29904;51.058;5.378;2022-09-09T17:11:28;3.00;;;0.30;;
44228;SDS011;29904;51.058;5.378;2022-09-09T17:13:55;1.47;;;0.50;;
44228;SDS011;29904;51.058;5.378;2022-09-09T17:16:23;0.95;;;0.30;;
44228;SDS011;29904;51.058;5.378;2022-09-09T17:18:52;0.75;;;0.40;;
44228;SDS011;29904;51.058;5.378;2022-09-09T17:21:20;1.67;;;0.32;;
44228;SDS011;29904;51.058;5.378;2022-09-09T17:23:48;1.20;;;0.40;;
44228;SDS011;29904;51.058;5.378;2022-09-09T17:26:15;1.30;;;0.37;;